createdAt,value
2022-12-15T00:02:32.725Z,6.55
2022-12-15T00:05:18.019Z,6.63
2022-12-15T00:08:03.424Z,5.85
2022-12-15T00:10:48.724Z,6.80
2022-12-15T00:13:34.584Z,7.32
2022-12-15T00:16:20.180Z,6.82
2022-12-15T00:19:05.550Z,6.30
2022-12-15T00:21:50.840Z,7.10
2022-12-15T00:24:36.697Z,6.85
2022-12-15T00:27:22.252Z,6.90
2022-12-15T00:30:07.886Z,6.82
2022-12-15T00:32:53.293Z,6.25
2022-12-15T00:35:38.576Z,6.10
2022-12-15T00:38:32.124Z,7.07
2022-12-15T00:40:59.894Z,7.00
2022-12-15T00:43:36.271Z,6.88
2022-12-15T00:46:22.400Z,6.88
2022-12-15T00:48:49.403Z,6.87
2022-12-15T00:51:16.414Z,7.22
2022-12-15T00:54:02.126Z,6.83
2022-12-15T00:56:47.968Z,7.17
2022-12-15T00:59:34.237Z,6.53
2022-12-15T01:02:20.096Z,6.90
2022-12-15T01:05:06.188Z,6.70
2022-12-15T01:07:51.461Z,6.17
2022-12-15T01:10:37.426Z,7.43
2022-12-15T01:13:23.192Z,6.77
2022-12-15T01:16:08.722Z,6.23
2022-12-15T01:18:54.459Z,6.87
2022-12-15T01:21:24.704Z,6.80
2022-12-15T01:23:52.193Z,7.30
2022-12-15T01:26:19.230Z,7.10
2022-12-15T01:28:46.109Z,7.10
2022-12-15T01:31:13.187Z,7.33
2022-12-15T01:33:42.564Z,7.40
2022-12-15T01:36:09.782Z,7.53
2022-12-15T01:38:36.685Z,7.20
2022-12-15T01:41:08.185Z,8.13
2022-12-15T01:43:36.686Z,8.30
2022-12-15T01:46:06.791Z,8.67
2022-12-15T01:48:59.285Z,7.83
2022-12-15T01:51:32.508Z,7.77
2022-12-15T01:54:05.591Z,7.53
2022-12-15T01:56:37.353Z,7.10
2022-12-15T01:59:04.986Z,8.00
2022-12-15T02:01:31.926Z,7.57
2022-12-15T02:03:59.015Z,7.80
2022-12-15T02:06:26.061Z,7.17
2022-12-15T02:08:53.379Z,7.67
2022-12-15T02:11:44.858Z,7.63
2022-12-15T02:14:12.475Z,8.27
2022-12-15T02:16:42.270Z,7.77
2022-12-15T02:19:16.630Z,7.80
2022-12-15T02:22:21.235Z,7.53
2022-12-15T02:24:54.181Z,7.07
2022-12-15T02:27:42.780Z,7.50
2022-12-15T02:30:15.677Z,7.67
2022-12-15T02:32:48.537Z,7.27
2022-12-15T02:35:41.414Z,7.20
2022-12-15T02:38:09.428Z,7.23
2022-12-15T02:40:37.116Z,7.30
2022-12-15T02:43:04.772Z,6.40
2022-12-15T02:45:45.692Z,7.20
2022-12-15T02:48:23.892Z,6.73
2022-12-15T02:51:07.136Z,6.87
2022-12-15T02:54:08.083Z,7.00
2022-12-15T02:57:06.096Z,6.73
2022-12-15T03:00:17.693Z,6.40
2022-12-15T03:02:52.040Z,6.57
2022-12-15T03:05:19.487Z,6.63
2022-12-15T03:07:49.603Z,6.97
2022-12-15T03:10:16.822Z,6.93
2022-12-15T03:12:43.770Z,6.80
2022-12-15T03:15:11.211Z,6.90
2022-12-15T03:17:38.414Z,7.20
2022-12-15T03:20:06.232Z,6.43
2022-12-15T03:22:33.174Z,6.87
2022-12-15T03:25:00.086Z,6.70
2022-12-15T03:27:27.141Z,7.67
2022-12-15T03:29:54.036Z,6.30
2022-12-15T03:32:21.031Z,6.80
2022-12-15T03:34:47.948Z,7.23
2022-12-15T03:37:14.862Z,6.60
2022-12-15T03:39:41.772Z,7.03
2022-12-15T03:42:08.740Z,7.23
2022-12-15T03:44:35.619Z,6.67
2022-12-15T03:47:03.844Z,6.87
2022-12-15T03:49:30.922Z,6.47
2022-12-15T03:51:57.994Z,7.23
2022-12-15T03:54:24.983Z,6.47
2022-12-15T03:56:52.003Z,6.90
2022-12-15T03:59:19.413Z,6.60
2022-12-15T04:01:49.404Z,6.70
2022-12-15T04:04:16.516Z,7.33
2022-12-15T04:06:43.495Z,7.20
2022-12-15T04:09:10.517Z,6.97
2022-12-15T04:11:37.458Z,7.07
2022-12-15T04:14:04.383Z,7.27
2022-12-15T04:16:32.030Z,7.03
2022-12-15T04:19:17.637Z,7.17
2022-12-15T04:21:46.407Z,8.10
2022-12-15T04:24:31.842Z,7.77
2022-12-15T04:27:17.161Z,7.10
2022-12-15T04:30:02.702Z,7.10
2022-12-15T04:32:49.967Z,7.50
2022-12-15T04:35:35.562Z,6.80
2022-12-15T04:38:20.797Z,7.67
2022-12-15T04:41:06.094Z,7.33
2022-12-15T04:43:51.651Z,7.43
2022-12-15T04:46:37.005Z,6.93
2022-12-15T04:49:22.688Z,7.63
2022-12-15T04:52:08.355Z,6.70
2022-12-15T04:54:53.601Z,6.63
2022-12-15T04:57:38.819Z,6.47
2022-12-15T05:00:24.476Z,6.73
2022-12-15T05:03:13.701Z,7.30
2022-12-15T05:06:03.493Z,7.10
2022-12-15T05:08:50.060Z,7.17
2022-12-15T05:11:36.163Z,6.93
2022-12-15T05:14:21.512Z,6.43
2022-12-15T05:17:07.098Z,7.67
2022-12-15T05:19:52.818Z,7.00
2022-12-15T05:22:38.424Z,6.60
2022-12-15T05:25:24.059Z,7.00
2022-12-15T05:28:09.527Z,6.90
2022-12-15T05:30:54.964Z,6.20
2022-12-15T05:33:22.049Z,7.23
2022-12-15T05:35:50.044Z,6.90
2022-12-15T05:38:16.949Z,7.40
2022-12-15T05:40:43.978Z,7.33
2022-12-15T05:43:11.043Z,6.63
2022-12-15T05:45:38.127Z,7.20
2022-12-15T05:48:05.363Z,7.50
2022-12-15T05:50:32.278Z,6.80
2022-12-15T05:52:59.310Z,7.23
2022-12-15T05:55:26.250Z,7.60
2022-12-15T05:57:53.824Z,7.23
2022-12-15T06:00:21.218Z,7.90
2022-12-15T06:02:48.268Z,7.27
2022-12-15T06:05:17.313Z,7.60
2022-12-15T06:07:44.225Z,7.20
2022-12-15T06:10:11.658Z,7.50
2022-12-15T06:12:38.622Z,7.30
2022-12-15T06:15:06.378Z,7.47
2022-12-15T06:17:33.357Z,7.00
2022-12-15T06:20:00.471Z,7.30
2022-12-15T06:22:28.964Z,7.60
2022-12-15T06:24:55.935Z,7.07
2022-12-15T06:27:23.076Z,7.47
2022-12-15T06:29:49.983Z,7.33
2022-12-15T06:32:16.926Z,7.97
2022-12-15T06:34:43.842Z,8.13
2022-12-15T06:37:10.849Z,7.67
2022-12-15T06:39:37.831Z,7.40
2022-12-15T06:42:04.942Z,7.50
2022-12-15T06:44:31.905Z,7.70
2022-12-15T06:46:58.832Z,7.70
2022-12-15T06:49:25.752Z,7.87
2022-12-15T06:51:52.644Z,7.33
2022-12-15T06:54:19.578Z,7.83
2022-12-15T06:56:46.491Z,7.67
2022-12-15T06:59:17.182Z,7.67
2022-12-15T07:01:44.319Z,7.77
2022-12-15T07:04:11.831Z,8.13
2022-12-15T07:06:39.385Z,8.00
2022-12-15T07:09:08.034Z,7.60
2022-12-15T07:11:35.322Z,7.63
2022-12-15T07:14:02.278Z,7.53
2022-12-15T07:16:29.342Z,9.13
2022-12-15T07:18:56.353Z,8.80
2022-12-15T07:21:23.372Z,7.87
2022-12-15T07:23:55.964Z,7.47
2022-12-15T07:26:23.978Z,9.10
2022-12-15T07:28:51.462Z,9.30
2022-12-15T07:31:18.543Z,9.30
2022-12-15T07:33:47.493Z,9.33
2022-12-15T07:36:14.383Z,9.43
2022-12-15T07:38:41.353Z,9.03
2022-12-15T07:41:09.603Z,8.50
2022-12-15T07:43:37.630Z,9.27
2022-12-15T07:46:05.477Z,10.03
2022-12-15T07:48:32.800Z,10.03
2022-12-15T07:51:08.313Z,9.83
2022-12-15T07:53:36.997Z,9.70
2022-12-15T07:56:08.400Z,10.67
2022-12-15T07:58:35.989Z,10.32
2022-12-15T08:01:04.672Z,10.57
2022-12-15T08:03:32.128Z,10.27
2022-12-15T08:06:04.374Z,11.40
2022-12-15T08:10:59.325Z,10.23
2022-12-15T08:14:00.689Z,11.90
2022-12-15T08:16:13.305Z,10.43
2022-12-15T08:18:40.315Z,11.77
2022-12-15T08:21:08.398Z,11.50
2022-12-15T08:23:36.198Z,11.40
2022-12-15T08:26:07.816Z,12.00
2022-12-15T08:28:35.119Z,11.63
2022-12-15T08:31:12.978Z,11.93
2022-12-15T08:33:40.019Z,11.53
2022-12-15T08:36:08.780Z,11.17
2022-12-15T08:38:36.385Z,12.73
2022-12-15T08:41:16.116Z,11.33
2022-12-15T08:43:48.257Z,11.17
2022-12-15T08:46:17.031Z,11.83
2022-12-15T08:48:44.195Z,13.93
2022-12-15T08:51:11.343Z,12.17
2022-12-15T08:53:39.189Z,15.07
2022-12-15T08:56:12.299Z,14.00
2022-12-15T08:58:39.460Z,14.43
2022-12-15T09:01:08.233Z,15.50
2022-12-15T09:03:35.945Z,14.47
2022-12-15T09:06:06.925Z,15.27
2022-12-15T09:08:34.320Z,15.43
2022-12-15T09:11:01.600Z,16.17
2022-12-15T09:13:29.149Z,15.27
2022-12-15T09:16:09.410Z,15.03
2022-12-15T09:18:37.544Z,15.50
2022-12-15T09:21:05.738Z,14.90
2022-12-15T09:23:33.193Z,15.33
2022-12-15T09:26:05.551Z,15.60
2022-12-15T09:31:07.590Z,16.23
2022-12-15T09:33:35.038Z,16.33
2022-12-15T09:36:02.523Z,18.67
2022-12-15T09:38:29.515Z,19.03
2022-12-15T09:40:56.531Z,19.87
2022-12-15T09:43:46.658Z,18.00
2022-12-15T09:46:24.677Z,17.50
2022-12-15T09:48:51.857Z,17.33
2022-12-15T09:51:19.162Z,18.93
2022-12-15T09:53:55.220Z,16.95
2022-12-15T09:56:26.263Z,17.83
2022-12-15T09:58:53.112Z,16.90
2022-12-15T10:01:58.418Z,17.10
2022-12-15T10:04:38.125Z,17.45
2022-12-15T10:07:15.091Z,17.95
2022-12-15T10:09:42.109Z,17.05
2022-12-15T10:12:25.353Z,18.42
2022-12-15T10:15:27.305Z,16.70
2022-12-15T10:18:22.217Z,18.08
2022-12-15T10:20:49.216Z,17.23
2022-12-15T10:23:17.719Z,18.92
2022-12-15T10:25:48.351Z,17.92
2022-12-15T10:28:36.659Z,18.02
2022-12-15T10:31:25.782Z,17.80
2022-12-15T10:34:10.718Z,17.40
2022-12-15T10:36:37.858Z,18.73
2022-12-15T10:39:04.994Z,19.02
2022-12-15T10:41:32.866Z,19.48
2022-12-15T10:43:59.871Z,18.92
2022-12-15T10:46:28.312Z,19.83
2022-12-15T10:49:00.247Z,19.80
2022-12-15T10:51:29.925Z,19.10
2022-12-15T10:54:04.623Z,18.98
2022-12-15T10:56:33.860Z,18.63
2022-12-15T10:59:03.739Z,18.48
2022-12-15T11:01:33.615Z,19.05
2022-12-15T11:04:01.134Z,18.83
2022-12-15T11:06:30.508Z,18.60
2022-12-15T11:09:07.033Z,18.00
2022-12-15T11:11:53.534Z,18.35
2022-12-15T11:14:26.238Z,17.77
2022-12-15T11:16:57.746Z,17.13
2022-12-15T11:19:36.507Z,17.98
2022-12-15T11:22:24.037Z,17.10
2022-12-15T11:24:53.461Z,17.27
2022-12-15T11:27:46.864Z,17.52
2022-12-15T11:30:22.298Z,17.55
2022-12-15T11:32:51.631Z,17.98
2022-12-15T11:35:21.563Z,18.65
2022-12-15T11:38:11.872Z,18.45
2022-12-15T11:40:42.667Z,18.10
2022-12-15T11:43:33.977Z,19.02
2022-12-15T11:46:19.317Z,19.08
2022-12-15T11:48:51.983Z,18.13
2022-12-15T11:51:26.069Z,19.40
2022-12-15T11:54:02.122Z,19.75
2022-12-15T11:57:13.545Z,20.20
2022-12-15T11:59:55.118Z,20.83
2022-12-15T12:02:41.078Z,20.75
2022-12-15T12:05:23.316Z,19.95
2022-12-15T12:07:53.961Z,20.25
2022-12-15T12:10:42.737Z,21.92
2022-12-15T12:13:15.648Z,21.35
2022-12-15T12:15:52.903Z,20.98
2022-12-15T12:18:28.846Z,20.63
2022-12-15T12:21:02.935Z,20.58
2022-12-15T12:23:51.390Z,21.10
2022-12-15T12:26:48.486Z,21.08
2022-12-15T12:29:29.266Z,21.98
2022-12-15T12:32:22.888Z,22.88
2022-12-15T12:35:30.814Z,22.58
2022-12-15T12:38:03.275Z,22.80
2022-12-15T12:40:33.513Z,22.15
2022-12-15T12:43:01.005Z,22.35
2022-12-15T12:45:37.372Z,22.88
2022-12-15T12:48:09.455Z,22.30
2022-12-15T12:53:03.571Z,22.35
2022-12-15T12:55:40.515Z,22.05
2022-12-15T12:58:38.819Z,21.55
2022-12-15T13:01:20.167Z,21.77
2022-12-15T13:03:47.871Z,22.52
2022-12-15T13:06:34.464Z,21.52
2022-12-15T13:09:19.467Z,22.20
2022-12-15T13:11:51.184Z,21.48
2022-12-15T13:14:40.178Z,19.90
2022-12-15T13:17:26.635Z,19.73
2022-12-15T13:19:57.124Z,19.65
2022-12-15T13:22:26.959Z,17.75
2022-12-15T13:24:54.022Z,19.48
2022-12-15T13:27:21.071Z,19.17
2022-12-15T13:30:06.866Z,19.63
2022-12-15T13:32:37.368Z,20.08
2022-12-15T13:35:13.779Z,19.95
2022-12-15T13:37:50.629Z,19.08
2022-12-15T13:40:33.805Z,21.33
2022-12-15T13:43:03.829Z,20.27
2022-12-15T13:45:44.703Z,18.35
2022-12-15T13:48:38.287Z,19.02
2022-12-15T13:51:24.156Z,19.52
2022-12-15T13:53:58.487Z,18.77
2022-12-15T13:57:03.852Z,15.25
2022-12-15T13:59:33.816Z,15.02
2022-12-15T14:02:00.780Z,14.98
2022-12-15T14:04:27.816Z,15.27
2022-12-15T14:07:01.889Z,14.63
2022-12-15T14:09:36.963Z,15.50
2022-12-15T14:12:04.876Z,14.38
2022-12-15T14:14:36.563Z,15.48
2022-12-15T14:17:14.319Z,14.65
2022-12-15T14:19:42.490Z,15.13
2022-12-15T14:22:29.158Z,14.93
2022-12-15T14:25:14.384Z,14.25
2022-12-15T14:27:41.463Z,14.90
2022-12-15T14:30:32.754Z,15.15
2022-12-15T14:33:14.960Z,14.43
2022-12-15T14:38:13.143Z,13.68
2022-12-15T14:40:40.187Z,14.32
2022-12-15T14:43:16.895Z,14.70
2022-12-15T14:45:44.022Z,14.27
2022-12-15T14:48:40.135Z,14.63
2022-12-15T14:51:01.613Z,14.85
2022-12-15T14:53:34.971Z,14.38
2022-12-15T14:56:24.175Z,14.73
2022-12-15T14:59:03.934Z,15.10
2022-12-15T15:01:37.448Z,14.65
2022-12-15T15:04:06.175Z,15.98
2022-12-15T15:06:39.751Z,16.02
2022-12-15T15:09:47.509Z,15.55
2022-12-15T15:12:19.360Z,16.10
2022-12-15T15:14:58.230Z,15.95
2022-12-15T15:17:58.259Z,15.55
2022-12-15T15:20:32.341Z,15.10
2022-12-15T15:23:08.473Z,15.13
2022-12-15T15:25:49.229Z,15.27
2022-12-15T15:28:19.278Z,16.63
2022-12-15T15:30:56.175Z,16.38
2022-12-15T15:33:24.403Z,17.52
2022-12-15T15:35:53.204Z,16.25
2022-12-15T15:38:35.319Z,16.88
2022-12-15T15:41:32.603Z,15.98
2022-12-15T15:44:01.028Z,17.33
2022-12-15T15:46:35.094Z,16.25
2022-12-15T15:49:05.294Z,17.08
2022-12-15T15:51:32.575Z,16.52
2022-12-15T15:54:05.636Z,16.75
2022-12-15T15:56:32.644Z,15.88
2022-12-15T15:59:00.573Z,17.13
2022-12-15T16:01:27.579Z,15.13
2022-12-15T16:03:54.640Z,16.15
2022-12-15T16:06:21.630Z,15.63
2022-12-15T16:08:52.433Z,14.77
2022-12-15T16:11:20.245Z,14.20
2022-12-15T16:13:47.219Z,13.90
2022-12-15T16:16:20.904Z,14.07
2022-12-15T16:18:47.937Z,13.73
2022-12-15T16:21:15.207Z,13.77
2022-12-15T16:23:43.234Z,14.48
2022-12-15T16:26:19.649Z,13.02
2022-12-15T16:28:46.590Z,13.70
2022-12-15T16:31:27.802Z,12.35
2022-12-15T16:33:55.283Z,13.97
2022-12-15T16:36:22.261Z,13.40
2022-12-15T16:38:49.620Z,13.80
2022-12-15T16:41:17.114Z,12.93
2022-12-15T16:43:48.067Z,12.20
2022-12-15T16:46:15.623Z,12.65
2022-12-15T16:48:42.846Z,11.30
2022-12-15T16:51:13.074Z,11.68
2022-12-15T16:53:40.967Z,11.75
2022-12-15T16:56:08.442Z,13.00
2022-12-15T16:58:36.048Z,13.45
2022-12-15T17:01:03.961Z,13.27
2022-12-15T17:03:31.144Z,13.25
2022-12-15T17:06:02.076Z,13.23
2022-12-15T17:08:40.237Z,12.75
2022-12-15T17:11:07.445Z,12.55
2022-12-15T17:13:43.695Z,13.90
2022-12-15T17:16:14.388Z,11.98
2022-12-15T17:18:42.864Z,12.10
2022-12-15T17:21:17.259Z,11.98
2022-12-15T17:23:52.489Z,11.10
2022-12-15T17:26:29.495Z,10.80
2022-12-15T17:29:07.940Z,11.80
2022-12-15T17:31:36.127Z,10.75
2022-12-15T17:34:30.643Z,10.07
2022-12-15T17:37:05.497Z,9.88
2022-12-15T17:39:33.726Z,10.00
2022-12-15T17:42:02.119Z,10.13
2022-12-15T17:44:34.087Z,10.00
2022-12-15T17:49:35.020Z,8.40
2022-12-15T17:52:03.200Z,9.97
2022-12-15T17:54:30.147Z,11.37
2022-12-15T17:56:57.137Z,10.43
2022-12-15T17:59:24.062Z,11.20
2022-12-15T18:01:52.204Z,11.63
2022-12-15T18:04:19.291Z,11.30
2022-12-15T18:06:46.270Z,10.88
2022-12-15T18:09:15.545Z,11.30
2022-12-15T18:11:45.199Z,10.87
2022-12-15T18:14:19.400Z,11.82
2022-12-15T18:16:46.564Z,12.07
2022-12-15T18:19:13.653Z,12.20
2022-12-15T18:21:40.694Z,12.43
2022-12-15T18:24:15.521Z,12.90
2022-12-15T18:26:42.968Z,13.03
2022-12-15T18:29:14.326Z,12.40
2022-12-15T18:31:41.334Z,13.43
2022-12-15T18:34:18.873Z,13.90
2022-12-15T18:36:47.211Z,12.25
2022-12-15T18:39:23.478Z,12.77
2022-12-15T18:41:51.069Z,13.95
2022-12-15T18:44:23.485Z,14.50
2022-12-15T18:46:50.629Z,16.25
2022-12-15T18:49:19.446Z,15.27
2022-12-15T18:51:47.306Z,16.65
2022-12-15T18:54:18.856Z,15.55
2022-12-15T18:56:45.847Z,15.38
2022-12-15T18:59:15.752Z,15.35
2022-12-15T19:01:44.148Z,14.90
2022-12-15T19:04:11.577Z,15.15
2022-12-15T19:06:39.918Z,15.30
2022-12-15T19:09:12.036Z,13.75
2022-12-15T19:11:39.080Z,16.05
2022-12-15T19:14:30.679Z,15.63
2022-12-15T19:17:16.576Z,15.95
2022-12-15T19:20:02.313Z,15.32
2022-12-15T19:22:30.088Z,15.52
2022-12-15T19:24:59.665Z,15.02
2022-12-15T19:27:27.229Z,15.93
2022-12-15T19:29:54.551Z,17.98
2022-12-15T19:32:22.740Z,16.38
2022-12-15T19:34:49.877Z,16.27
2022-12-15T19:37:24.347Z,16.50
2022-12-15T19:39:51.633Z,16.08
2022-12-15T19:42:20.868Z,16.40
2022-12-15T19:44:48.486Z,16.80
2022-12-15T19:47:15.503Z,16.83
2022-12-15T19:49:42.952Z,16.80
2022-12-15T19:52:17.051Z,16.87
2022-12-15T19:54:44.983Z,18.05
2022-12-15T19:57:15.590Z,15.80
2022-12-15T19:59:42.491Z,16.13
2022-12-15T20:02:20.349Z,22.03
2022-12-15T20:04:48.138Z,18.88
2022-12-15T20:07:30.713Z,16.63
2022-12-15T20:09:58.273Z,15.70
2022-12-15T20:12:25.266Z,14.20
2022-12-15T20:14:52.420Z,13.43
2022-12-15T20:17:19.623Z,12.33
2022-12-15T20:19:46.624Z,11.83
2022-12-15T20:22:15.294Z,11.32
2022-12-15T20:24:42.560Z,11.88
2022-12-15T20:27:13.840Z,11.63
2022-12-15T20:29:40.854Z,12.27
2022-12-15T20:32:16.978Z,13.02
2022-12-15T20:34:44.106Z,12.90
2022-12-15T20:37:31.313Z,12.93
2022-12-15T20:39:58.301Z,12.35
2022-12-15T20:42:25.386Z,12.32
2022-12-15T20:44:54.195Z,11.93
2022-12-15T20:47:22.933Z,12.43
2022-12-15T20:49:53.209Z,13.23
2022-12-15T20:52:22.923Z,12.63
2022-12-15T20:54:50.633Z,16.05
2022-12-15T20:57:20.114Z,11.93
2022-12-15T20:59:47.034Z,12.88
2022-12-15T21:02:19.555Z,12.25
2022-12-15T21:04:49.163Z,11.00
2022-12-15T21:07:16.122Z,12.85
2022-12-15T21:09:43.040Z,11.93
2022-12-15T21:12:21.052Z,11.82
2022-12-15T21:14:48.729Z,12.23
2022-12-15T21:17:16.791Z,11.65
2022-12-15T21:19:44.003Z,12.90
2022-12-15T21:22:20.651Z,12.38
2022-12-15T21:24:49.311Z,12.00
2022-12-15T21:27:18.183Z,12.82
2022-12-15T21:29:50.534Z,12.15
2022-12-15T21:32:19.496Z,10.98
2022-12-15T21:34:46.430Z,11.98
2022-12-15T21:37:25.729Z,12.45
2022-12-15T21:39:52.728Z,12.02
2022-12-15T21:42:21.070Z,11.50
2022-12-15T21:44:48.093Z,11.63
2022-12-15T21:47:24.099Z,12.27
2022-12-15T21:49:51.291Z,11.40
2022-12-15T21:52:19.416Z,11.60
2022-12-15T21:54:46.297Z,12.07
2022-12-15T21:57:13.588Z,12.63
2022-12-15T21:59:40.653Z,12.30
2022-12-15T22:02:24.883Z,11.73
2022-12-15T22:04:52.404Z,11.80
2022-12-15T22:07:19.354Z,11.15
2022-12-15T22:09:46.243Z,12.55
2022-12-15T22:12:18.545Z,12.27
2022-12-15T22:14:45.618Z,11.13
2022-12-15T22:17:17.656Z,12.52
2022-12-15T22:22:13.251Z,10.95
2022-12-15T22:24:40.729Z,11.63
2022-12-15T22:27:21.688Z,11.90
2022-12-15T22:29:48.935Z,12.18
2022-12-15T22:32:16.134Z,11.63
2022-12-15T22:34:43.218Z,11.93
2022-12-15T22:37:10.382Z,11.63
2022-12-15T22:39:37.349Z,11.27
2022-12-15T22:42:04.456Z,12.32
2022-12-15T22:44:32.525Z,12.63
2022-12-15T22:47:00.087Z,11.90
2022-12-15T22:49:37.662Z,13.32
2022-12-15T22:52:15.208Z,12.05
2022-12-15T22:54:45.551Z,12.05
2022-12-15T22:57:43.268Z,13.02
2022-12-15T23:00:11.236Z,12.93
2022-12-15T23:02:40.881Z,12.75
2022-12-15T23:05:08.275Z,12.60
2022-12-15T23:07:35.614Z,13.40
2022-12-15T23:10:21.406Z,13.05
2022-12-15T23:12:48.743Z,13.20
2022-12-15T23:15:34.494Z,12.48
2022-12-15T23:18:01.436Z,13.00
2022-12-15T23:20:28.371Z,12.45
2022-12-15T23:22:55.537Z,12.90
2022-12-15T23:25:22.464Z,12.77
2022-12-15T23:27:49.386Z,12.20
2022-12-15T23:30:16.444Z,12.45
2022-12-15T23:32:43.421Z,12.75
2022-12-15T23:35:10.435Z,13.17
2022-12-15T23:37:37.372Z,12.20
2022-12-15T23:40:05.026Z,12.18
2022-12-15T23:42:31.928Z,12.40
2022-12-15T23:44:58.902Z,12.43
2022-12-15T23:47:25.857Z,12.87
2022-12-15T23:49:52.936Z,11.87
2022-12-15T23:52:20.710Z,11.52
2022-12-15T23:54:47.956Z,11.87
2022-12-15T23:57:14.884Z,11.87
2022-12-15T23:59:41.799Z,12.90
